sensor_id;sensor_type;location;lat;lon;timestamp;temperature;humidity
16625;DHT22;8426;48.496;9.098;2024-02-04T00:03:15;6.60;99.90
16625;DHT22;8426;48.496;9.098;2024-02-04T00:08:18;6.60;99.90
16625;DHT22;8426;48.496;9.098;2024-02-04T00:13:23;6.50;99.90
16625;DHT22;8426;48.496;9.098;2024-02-04T00:18:27;6.50;99.90
16625;DHT22;8426;48.496;9.098;2024-02-04T00:23:31;6.50;99.90
16625;DHT22;8426;48.496;9.098;2024-02-04T00:28:35;6.50;99.90
16625;DHT22;8426;48.496;9.098;2024-02-04T00:33:39;6.50;99.90
16625;DHT22;8426;48.496;9.098;2024-02-04T00:38:43;6.40;99.90
16625;DHT22;8426;48.496;9.098;2024-02-04T00:43:48;6.40;99.90
16625;DHT22;8426;48.496;9.098;2024-02-04T00:48:52;6.40;99.90
16625;DHT22;8426;48.496;9.098;2024-02-04T00:53:56;6.40;99.90
16625;DHT22;8426;48.496;9.098;2024-02-04T00:59:01;6.40;99.90
16625;DHT22;8426;48.496;9.098;2024-02-04T01:04:06;6.40;99.90
16625;DHT22;8426;48.496;9.098;2024-02-04T01:09:10;6.40;99.90
16625;DHT22;8426;48.496;9.098;2024-02-04T01:14:15;6.40;99.90
16625;DHT22;8426;48.496;9.098;2024-02-04T01:19:19;6.40;99.90
16625;DHT22;8426;48.496;9.098;2024-02-04T01:24:24;6.40;99.90
16625;DHT22;8426;48.496;9.098;2024-02-04T01:29:30;6.20;99.90
16625;DHT22;8426;48.496;9.098;2024-02-04T01:34:34;6.20;99.90
16625;DHT22;8426;48.496;9.098;2024-02-04T01:39:38;6.10;99.90
16625;DHT22;8426;48.496;9.098;2024-02-04T01:44:43;6.00;99.90
16625;DHT22;8426;48.496;9.098;2024-02-04T01:49:47;5.90;99.90
16625;DHT22;8426;48.496;9.098;2024-02-04T01:54:52;5.80;99.90
16625;DHT22;8426;48.496;9.098;2024-02-04T01:59:58;5.70;99.90
16625;DHT22;8426;48.496;9.098;2024-02-04T02:05:03;5.70;99.90
16625;DHT22;8426;48.496;9.098;2024-02-04T02:10:08;5.60;99.90
16625;DHT22;8426;48.496;9.098;2024-02-04T02:15:18;5.60;99.90
16625;DHT22;8426;48.496;9.098;2024-02-04T02:20:26;5.60;99.90
16625;DHT22;8426;48.496;9.098;2024-02-04T02:25:36;5.60;99.90
16625;DHT22;8426;48.496;9.098;2024-02-04T02:30:41;5.70;99.90
16625;DHT22;8426;48.496;9.098;2024-02-04T02:35:47;5.70;99.90
16625;DHT22;8426;48.496;9.098;2024-02-04T02:40:59;5.70;99.90
16625;DHT22;8426;48.496;9.098;2024-02-04T02:46:06;5.80;99.90
16625;DHT22;8426;48.496;9.098;2024-02-04T02:51:10;5.90;99.90
16625;DHT22;8426;48.496;9.098;2024-02-04T02:56:15;5.90;99.90
16625;DHT22;8426;48.496;9.098;2024-02-04T03:01:19;5.90;99.90
16625;DHT22;8426;48.496;9.098;2024-02-04T03:06:22;6.00;99.90
16625;DHT22;8426;48.496;9.098;2024-02-04T03:11:27;6.10;99.90
16625;DHT22;8426;48.496;9.098;2024-02-04T03:16:31;6.00;99.90
16625;DHT22;8426;48.496;9.098;2024-02-04T03:21:34;6.00;99.90
16625;DHT22;8426;48.496;9.098;2024-02-04T03:26:42;6.00;99.90
16625;DHT22;8426;48.496;9.098;2024-02-04T03:31:46;6.00;99.90
16625;DHT22;8426;48.496;9.098;2024-02-04T03:36:50;6.00;99.90
16625;DHT22;8426;48.496;9.098;2024-02-04T03:41:55;6.00;99.90
16625;DHT22;8426;48.496;9.098;2024-02-04T03:46:58;6.00;99.90
16625;DHT22;8426;48.496;9.098;2024-02-04T03:52:02;6.10;99.90
16625;DHT22;8426;48.496;9.098;2024-02-04T03:57:08;6.10;99.90
16625;DHT22;8426;48.496;9.098;2024-02-04T04:02:13;6.10;99.90
16625;DHT22;8426;48.496;9.098;2024-02-04T04:07:17;6.10;99.90
16625;DHT22;8426;48.496;9.098;2024-02-04T04:12:22;6.10;99.90
16625;DHT22;8426;48.496;9.098;2024-02-04T04:17:26;6.10;99.90
16625;DHT22;8426;48.496;9.098;2024-02-04T04:22:30;6.00;99.90
16625;DHT22;8426;48.496;9.098;2024-02-04T04:27:35;6.00;99.90
16625;DHT22;8426;48.496;9.098;2024-02-04T04:32:39;5.90;99.90
16625;DHT22;8426;48.496;9.098;2024-02-04T04:37:43;6.00;99.90
16625;DHT22;8426;48.496;9.098;2024-02-04T04:42:48;5.90;99.90
16625;DHT22;8426;48.496;9.098;2024-02-04T04:47:52;5.90;99.90
16625;DHT22;8426;48.496;9.098;2024-02-04T04:52:56;5.80;99.90
16625;DHT22;8426;48.496;9.098;2024-02-04T04:58:01;5.70;99.90
16625;DHT22;8426;48.496;9.098;2024-02-04T05:03:04;5.80;99.90
16625;DHT22;8426;48.496;9.098;2024-02-04T05:08:08;5.70;99.90
16625;DHT22;8426;48.496;9.098;2024-02-04T05:13:13;5.70;99.90
16625;DHT22;8426;48.496;9.098;2024-02-04T05:18:17;5.70;99.90
16625;DHT22;8426;48.496;9.098;2024-02-04T05:23:20;5.70;99.90
16625;DHT22;8426;48.496;9.098;2024-02-04T05:28:26;5.70;99.90
16625;DHT22;8426;48.496;9.098;2024-02-04T05:33:30;5.60;99.90
16625;DHT22;8426;48.496;9.098;2024-02-04T05:38:33;5.60;99.90
16625;DHT22;8426;48.496;9.098;2024-02-04T05:43:38;5.70;99.90
16625;DHT22;8426;48.496;9.098;2024-02-04T05:48:42;5.70;99.90
16625;DHT22;8426;48.496;9.098;2024-02-04T05:53:47;5.70;99.90
16625;DHT22;8426;48.496;9.098;2024-02-04T05:58:52;5.70;99.90
16625;DHT22;8426;48.496;9.098;2024-02-04T06:03:56;5.80;99.90
16625;DHT22;8426;48.496;9.098;2024-02-04T06:09:00;5.80;99.90
16625;DHT22;8426;48.496;9.098;2024-02-04T06:14:07;5.80;99.90
16625;DHT22;8426;48.496;9.098;2024-02-04T06:19:10;5.80;99.90
16625;DHT22;8426;48.496;9.098;2024-02-04T06:24:15;5.70;99.90
16625;DHT22;8426;48.496;9.098;2024-02-04T06:29:23;5.60;99.90
16625;DHT22;8426;48.496;9.098;2024-02-04T06:34:27;5.50;99.90
16625;DHT22;8426;48.496;9.098;2024-02-04T06:39:30;5.50;99.90
16625;DHT22;8426;48.496;9.098;2024-02-04T06:44:35;5.50;99.90
16625;DHT22;8426;48.496;9.098;2024-02-04T06:49:39;5.50;99.90
16625;DHT22;8426;48.496;9.098;2024-02-04T06:54:43;5.50;99.90
16625;DHT22;8426;48.496;9.098;2024-02-04T06:59:49;5.50;99.90
16625;DHT22;8426;48.496;9.098;2024-02-04T07:04:53;5.50;99.90
16625;DHT22;8426;48.496;9.098;2024-02-04T07:09:58;5.50;99.90
16625;DHT22;8426;48.496;9.098;2024-02-04T07:15:04;5.60;99.90
16625;DHT22;8426;48.496;9.098;2024-02-04T07:20:08;5.80;99.90
16625;DHT22;8426;48.496;9.098;2024-02-04T07:25:13;5.90;99.90
16625;DHT22;8426;48.496;9.098;2024-02-04T07:30:19;6.10;99.90
16625;DHT22;8426;48.496;9.098;2024-02-04T07:35:23;6.20;99.90
16625;DHT22;8426;48.496;9.098;2024-02-04T07:40:26;6.40;99.90
16625;DHT22;8426;48.496;9.098;2024-02-04T07:45:34;6.40;99.90
16625;DHT22;8426;48.496;9.098;2024-02-04T07:50:39;6.40;99.90
16625;DHT22;8426;48.496;9.098;2024-02-04T07:55:44;6.60;99.90
16625;DHT22;8426;48.496;9.098;2024-02-04T08:00:50;6.70;99.90
16625;DHT22;8426;48.496;9.098;2024-02-04T08:05:53;6.70;99.90
16625;DHT22;8426;48.496;9.098;2024-02-04T08:10:58;6.70;99.90
16625;DHT22;8426;48.496;9.098;2024-02-04T08:16:05;6.70;99.90
16625;DHT22;8426;48.496;9.098;2024-02-04T08:21:09;6.90;99.90
16625;DHT22;8426;48.496;9.098;2024-02-04T08:26:13;7.10;99.90
16625;DHT22;8426;48.496;9.098;2024-02-04T08:31:18;7.30;99.90
16625;DHT22;8426;48.496;9.098;2024-02-04T08:36:22;7.30;99.90
16625;DHT22;8426;48.496;9.098;2024-02-04T08:41:26;7.50;99.90
16625;DHT22;8426;48.496;9.098;2024-02-04T08:46:31;7.60;99.90
16625;DHT22;8426;48.496;9.098;2024-02-04T08:51:34;7.50;99.90
16625;DHT22;8426;48.496;9.098;2024-02-04T08:56:39;7.80;99.90
16625;DHT22;8426;48.496;9.098;2024-02-04T09:01:44;7.90;99.90
16625;DHT22;8426;48.496;9.098;2024-02-04T09:06:48;7.90;99.90
16625;DHT22;8426;48.496;9.098;2024-02-04T09:11:52;8.00;99.90
16625;DHT22;8426;48.496;9.098;2024-02-04T09:16:57;8.20;99.90
16625;DHT22;8426;48.496;9.098;2024-02-04T09:22:01;8.40;99.90
16625;DHT22;8426;48.496;9.098;2024-02-04T09:27:05;8.60;99.90
16625;DHT22;8426;48.496;9.098;2024-02-04T09:32:10;8.60;99.90
16625;DHT22;8426;48.496;9.098;2024-02-04T09:37:16;8.80;99.90
16625;DHT22;8426;48.496;9.098;2024-02-04T09:42:21;8.80;99.90
16625;DHT22;8426;48.496;9.098;2024-02-04T09:47:27;9.30;99.90
16625;DHT22;8426;48.496;9.098;2024-02-04T09:52:33;9.50;99.90
16625;DHT22;8426;48.496;9.098;2024-02-04T09:57:37;10.10;99.90
16625;DHT22;8426;48.496;9.098;2024-02-04T10:02:42;10.20;99.90
16625;DHT22;8426;48.496;9.098;2024-02-04T10:07:47;9.40;99.90
16625;DHT22;8426;48.496;9.098;2024-02-04T10:12:50;9.10;99.90
16625;DHT22;8426;48.496;9.098;2024-02-04T10:17:56;9.20;99.90
16625;DHT22;8426;48.496;9.098;2024-02-04T10:23:01;9.20;99.90
16625;DHT22;8426;48.496;9.098;2024-02-04T10:28:06;9.20;99.90
16625;DHT22;8426;48.496;9.098;2024-02-04T10:33:12;9.10;99.90
16625;DHT22;8426;48.496;9.098;2024-02-04T10:38:16;10.10;99.90
16625;DHT22;8426;48.496;9.098;2024-02-04T10:43:21;10.70;99.90
16625;DHT22;8426;48.496;9.098;2024-02-04T10:48:29;10.80;99.90
16625;DHT22;8426;48.496;9.098;2024-02-04T10:53:45;10.30;99.90
16625;DHT22;8426;48.496;9.098;2024-02-04T10:58:49;10.40;99.90
16625;DHT22;8426;48.496;9.098;2024-02-04T11:03:56;10.50;99.90
16625;DHT22;8426;48.496;9.098;2024-02-04T11:09:01;10.50;99.90
16625;DHT22;8426;48.496;9.098;2024-02-04T11:14:08;10.80;99.90
16625;DHT22;8426;48.496;9.098;2024-02-04T11:19:23;10.90;99.90
16625;DHT22;8426;48.496;9.098;2024-02-04T11:24:44;11.00;99.90
16625;DHT22;8426;48.496;9.098;2024-02-04T11:29:54;11.10;99.90
16625;DHT22;8426;48.496;9.098;2024-02-04T11:34:59;11.00;99.90
16625;DHT22;8426;48.496;9.098;2024-02-04T11:40:06;10.90;99.90
16625;DHT22;8426;48.496;9.098;2024-02-04T11:45:12;11.10;99.90
16625;DHT22;8426;48.496;9.098;2024-02-04T11:50:28;11.10;99.90
16625;DHT22;8426;48.496;9.098;2024-02-04T11:55:34;11.30;99.90
16625;DHT22;8426;48.496;9.098;2024-02-04T12:00:43;11.50;99.90
16625;DHT22;8426;48.496;9.098;2024-02-04T12:05:49;11.50;99.90
16625;DHT22;8426;48.496;9.098;2024-02-04T12:10:55;11.60;99.90
16625;DHT22;8426;48.496;9.098;2024-02-04T12:15:58;11.70;99.90
16625;DHT22;8426;48.496;9.098;2024-02-04T12:21:04;12.40;99.90
16625;DHT22;8426;48.496;9.098;2024-02-04T12:26:08;13.10;99.90
16625;DHT22;8426;48.496;9.098;2024-02-04T12:31:24;13.00;99.90
16625;DHT22;8426;48.496;9.098;2024-02-04T12:36:30;12.80;99.90
16625;DHT22;8426;48.496;9.098;2024-02-04T12:41:34;12.80;99.90
16625;DHT22;8426;48.496;9.098;2024-02-04T12:46:38;12.50;99.90
16625;DHT22;8426;48.496;9.098;2024-02-04T12:51:43;12.10;99.90
16625;DHT22;8426;48.496;9.098;2024-02-04T12:56:48;11.70;99.90
16625;DHT22;8426;48.496;9.098;2024-02-04T13:01:54;11.40;99.90
16625;DHT22;8426;48.496;9.098;2024-02-04T13:06:59;11.20;99.90
16625;DHT22;8426;48.496;9.098;2024-02-04T13:12:05;11.10;99.90
16625;DHT22;8426;48.496;9.098;2024-02-04T13:17:09;11.10;99.90
16625;DHT22;8426;48.496;9.098;2024-02-04T13:22:15;11.30;99.90
16625;DHT22;8426;48.496;9.098;2024-02-04T13:27:18;11.40;99.90
16625;DHT22;8426;48.496;9.098;2024-02-04T13:32:22;11.50;99.90
16625;DHT22;8426;48.496;9.098;2024-02-04T13:37:29;12.00;99.90
16625;DHT22;8426;48.496;9.098;2024-02-04T13:42:35;12.40;99.90
16625;DHT22;8426;48.496;9.098;2024-02-04T13:47:39;12.30;99.90
16625;DHT22;8426;48.496;9.098;2024-02-04T13:52:44;11.80;99.90
16625;DHT22;8426;48.496;9.098;2024-02-04T13:57:48;11.70;99.90
16625;DHT22;8426;48.496;9.098;2024-02-04T14:02:52;11.50;99.90
16625;DHT22;8426;48.496;9.098;2024-02-04T14:07:57;11.60;99.90
16625;DHT22;8426;48.496;9.098;2024-02-04T14:13:01;11.50;99.90
16625;DHT22;8426;48.496;9.098;2024-02-04T14:18:06;11.50;99.90
16625;DHT22;8426;48.496;9.098;2024-02-04T14:23:11;11.50;99.90
16625;DHT22;8426;48.496;9.098;2024-02-04T14:28:15;11.40;99.90
16625;DHT22;8426;48.496;9.098;2024-02-04T14:33:18;11.10;99.90
16625;DHT22;8426;48.496;9.098;2024-02-04T14:38:23;11.00;99.90
16625;DHT22;8426;48.496;9.098;2024-02-04T14:43:27;11.00;99.90
16625;DHT22;8426;48.496;9.098;2024-02-04T14:48:31;10.90;99.90
16625;DHT22;8426;48.496;9.098;2024-02-04T14:53:36;10.80;99.90
16625;DHT22;8426;48.496;9.098;2024-02-04T14:58:40;10.70;99.90
16625;DHT22;8426;48.496;9.098;2024-02-04T15:03:44;10.50;99.90
16625;DHT22;8426;48.496;9.098;2024-02-04T15:08:50;10.40;99.90
16625;DHT22;8426;48.496;9.098;2024-02-04T15:13:54;10.30;99.90
16625;DHT22;8426;48.496;9.098;2024-02-04T15:18:58;10.20;99.90
16625;DHT22;8426;48.496;9.098;2024-02-04T15:24:04;10.10;99.90
16625;DHT22;8426;48.496;9.098;2024-02-04T15:29:09;10.00;99.90
16625;DHT22;8426;48.496;9.098;2024-02-04T15:34:15;10.00;99.90
16625;DHT22;8426;48.496;9.098;2024-02-04T15:39:20;9.80;99.90
16625;DHT22;8426;48.496;9.098;2024-02-04T15:44:24;9.70;99.90
16625;DHT22;8426;48.496;9.098;2024-02-04T15:49:28;9.70;99.90
16625;DHT22;8426;48.496;9.098;2024-02-04T15:54:34;9.60;99.90
16625;DHT22;8426;48.496;9.098;2024-02-04T15:59:48;9.50;99.90
16625;DHT22;8426;48.496;9.098;2024-02-04T16:04:53;9.40;99.90
16625;DHT22;8426;48.496;9.098;2024-02-04T16:09:59;9.20;99.90
16625;DHT22;8426;48.496;9.098;2024-02-04T16:15:04;9.00;99.90
16625;DHT22;8426;48.496;9.098;2024-02-04T16:20:13;8.70;99.90
16625;DHT22;8426;48.496;9.098;2024-02-04T16:25:18;8.60;99.90
16625;DHT22;8426;48.496;9.098;2024-02-04T16:30:21;8.40;99.90
16625;DHT22;8426;48.496;9.098;2024-02-04T16:35:26;8.30;99.90
16625;DHT22;8426;48.496;9.098;2024-02-04T16:40:31;8.30;99.90
16625;DHT22;8426;48.496;9.098;2024-02-04T16:45:35;8.10;99.90
16625;DHT22;8426;48.496;9.098;2024-02-04T16:50:39;8.00;99.90
16625;DHT22;8426;48.496;9.098;2024-02-04T16:55:44;8.00;99.90
16625;DHT22;8426;48.496;9.098;2024-02-04T17:00:50;8.00;99.90
16625;DHT22;8426;48.496;9.098;2024-02-04T17:05:55;8.00;99.90
16625;DHT22;8426;48.496;9.098;2024-02-04T17:11:01;7.90;99.90
16625;DHT22;8426;48.496;9.098;2024-02-04T17:16:11;8.00;99.90
16625;DHT22;8426;48.496;9.098;2024-02-04T17:21:21;8.10;99.90
16625;DHT22;8426;48.496;9.098;2024-02-04T17:26:29;7.90;99.90
16625;DHT22;8426;48.496;9.098;2024-02-04T17:31:35;7.90;99.90
16625;DHT22;8426;48.496;9.098;2024-02-04T17:36:39;7.90;99.90
16625;DHT22;8426;48.496;9.098;2024-02-04T17:41:44;7.80;99.90
16625;DHT22;8426;48.496;9.098;2024-02-04T17:46:48;7.50;99.90
16625;DHT22;8426;48.496;9.098;2024-02-04T17:51:51;7.30;99.90
16625;DHT22;8426;48.496;9.098;2024-02-04T17:56:59;7.30;99.90
16625;DHT22;8426;48.496;9.098;2024-02-04T18:02:03;7.20;99.90
16625;DHT22;8426;48.496;9.098;2024-02-04T18:07:08;7.20;99.90
16625;DHT22;8426;48.496;9.098;2024-02-04T18:12:13;7.00;99.90
16625;DHT22;8426;48.496;9.098;2024-02-04T18:17:17;6.90;99.90
16625;DHT22;8426;48.496;9.098;2024-02-04T18:22:20;6.90;99.90
16625;DHT22;8426;48.496;9.098;2024-02-04T18:27:25;6.80;99.90
16625;DHT22;8426;48.496;9.098;2024-02-04T18:32:29;6.70;99.90
16625;DHT22;8426;48.496;9.098;2024-02-04T18:37:34;6.70;99.90
16625;DHT22;8426;48.496;9.098;2024-02-04T18:42:39;6.80;99.90
16625;DHT22;8426;48.496;9.098;2024-02-04T18:47:43;6.80;99.90
16625;DHT22;8426;48.496;9.098;2024-02-04T18:52:47;6.70;99.90
16625;DHT22;8426;48.496;9.098;2024-02-04T18:57:52;6.80;99.90
16625;DHT22;8426;48.496;9.098;2024-02-04T19:02:55;6.80;99.90
16625;DHT22;8426;48.496;9.098;2024-02-04T19:07:59;6.90;99.90
16625;DHT22;8426;48.496;9.098;2024-02-04T19:13:05;6.80;99.90
16625;DHT22;8426;48.496;9.098;2024-02-04T19:18:09;6.80;99.90
16625;DHT22;8426;48.496;9.098;2024-02-04T19:23:13;6.90;99.90
16625;DHT22;8426;48.496;9.098;2024-02-04T19:28:18;6.80;99.90
16625;DHT22;8426;48.496;9.098;2024-02-04T19:33:22;6.60;99.90
16625;DHT22;8426;48.496;9.098;2024-02-04T19:38:27;6.60;99.90
16625;DHT22;8426;48.496;9.098;2024-02-04T19:43:32;6.60;99.90
16625;DHT22;8426;48.496;9.098;2024-02-04T19:48:35;6.60;99.90
16625;DHT22;8426;48.496;9.098;2024-02-04T19:53:39;6.60;99.90
16625;DHT22;8426;48.496;9.098;2024-02-04T19:58:44;6.70;99.90
16625;DHT22;8426;48.496;9.098;2024-02-04T20:03:48;6.60;99.90
16625;DHT22;8426;48.496;9.098;2024-02-04T20:08:53;6.60;99.90
16625;DHT22;8426;48.496;9.098;2024-02-04T20:13:58;6.60;99.90
16625;DHT22;8426;48.496;9.098;2024-02-04T20:19:06;6.60;99.90
16625;DHT22;8426;48.496;9.098;2024-02-04T20:24:10;6.50;99.90
16625;DHT22;8426;48.496;9.098;2024-02-04T20:29:15;6.40;99.90
16625;DHT22;8426;48.496;9.098;2024-02-04T20:34:20;6.40;99.90
16625;DHT22;8426;48.496;9.098;2024-02-04T20:39:23;6.30;99.90
16625;DHT22;8426;48.496;9.098;2024-02-04T20:44:29;6.20;99.90
16625;DHT22;8426;48.496;9.098;2024-02-04T20:49:33;6.10;99.90
16625;DHT22;8426;48.496;9.098;2024-02-04T20:54:37;6.10;99.90
16625;DHT22;8426;48.496;9.098;2024-02-04T20:59:42;6.20;99.90
16625;DHT22;8426;48.496;9.098;2024-02-04T21:04:47;6.20;99.90
16625;DHT22;8426;48.496;9.098;2024-02-04T21:09:51;6.10;99.90
16625;DHT22;8426;48.496;9.098;2024-02-04T21:14:56;6.10;99.90
16625;DHT22;8426;48.496;9.098;2024-02-04T21:20:01;6.20;99.90
16625;DHT22;8426;48.496;9.098;2024-02-04T21:25:08;6.30;99.90
16625;DHT22;8426;48.496;9.098;2024-02-04T21:30:15;6.30;99.90
16625;DHT22;8426;48.496;9.098;2024-02-04T21:35:18;6.20;99.90
16625;DHT22;8426;48.496;9.098;2024-02-04T21:40:22;6.10;99.90
16625;DHT22;8426;48.496;9.098;2024-02-04T21:45:29;6.00;99.90
16625;DHT22;8426;48.496;9.098;2024-02-04T21:50:32;6.00;99.90
16625;DHT22;8426;48.496;9.098;2024-02-04T21:55:38;6.00;99.90
16625;DHT22;8426;48.496;9.098;2024-02-04T22:00:44;5.90;99.90
16625;DHT22;8426;48.496;9.098;2024-02-04T22:05:47;5.90;99.90
16625;DHT22;8426;48.496;9.098;2024-02-04T22:10:52;6.00;99.90
16625;DHT22;8426;48.496;9.098;2024-02-04T22:15:57;5.90;99.90
16625;DHT22;8426;48.496;9.098;2024-02-04T22:21:00;5.90;99.90
16625;DHT22;8426;48.496;9.098;2024-02-04T22:26:04;6.00;99.90
16625;DHT22;8426;48.496;9.098;2024-02-04T22:31:10;5.80;99.90
16625;DHT22;8426;48.496;9.098;2024-02-04T22:36:14;5.70;99.90
16625;DHT22;8426;48.496;9.098;2024-02-04T22:41:18;5.60;99.90
16625;DHT22;8426;48.496;9.098;2024-02-04T22:46:23;5.70;99.90
16625;DHT22;8426;48.496;9.098;2024-02-04T22:51:27;5.80;99.90
16625;DHT22;8426;48.496;9.098;2024-02-04T22:56:32;5.80;99.90
16625;DHT22;8426;48.496;9.098;2024-02-04T23:01:38;5.80;99.90
16625;DHT22;8426;48.496;9.098;2024-02-04T23:06:41;5.80;99.90
16625;DHT22;8426;48.496;9.098;2024-02-04T23:11:45;5.80;99.90
16625;DHT22;8426;48.496;9.098;2024-02-04T23:16:50;5.80;99.90
16625;DHT22;8426;48.496;9.098;2024-02-04T23:21:54;5.70;99.90
16625;DHT22;8426;48.496;9.098;2024-02-04T23:26:58;5.70;99.90
16625;DHT22;8426;48.496;9.098;2024-02-04T23:32:04;5.70;99.90
16625;DHT22;8426;48.496;9.098;2024-02-04T23:37:08;5.50;99.90
16625;DHT22;8426;48.496;9.098;2024-02-04T23:42:11;5.50;99.90
16625;DHT22;8426;48.496;9.098;2024-02-04T23:47:16;5.40;99.90
16625;DHT22;8426;48.496;9.098;2024-02-04T23:52:20;5.30;99.90
16625;DHT22;8426;48.496;9.098;2024-02-04T23:57:24;5.30;99.90
